Time;durP1;ratioP1;P1;durP2;ratioP2;P2;SDS_P1;SDS_P2;PMS_P1;PMS_P2;Temp;Humidity;BMP_temperature;BMP_pressure;BME280_temperature;BME280_humidity;BME280_pressure;Samples;Min_cycle;Max_cycle;Signal;HPM_P1;HPM_P2
2022/01/01 00:01:30;;;;;;;63.27;44.40;;;;;;;;;;5053727;28;20168;-68
2022/01/01 00:03:56;;;;;;;76.17;50.30;;;;;;;;;;5053645;28;20494;-69
2022/01/01 00:06:22;;;;;;;76.23;50.63;;;;;;;;;;5053655;28;20438;-68
2022/01/01 00:08:48;;;;;;;85.80;52.63;;;;;;;;;;5053636;28;20408;-68
2022/01/01 00:11:14;;;;;;;81.30;54.20;;;;;;;;;;5053322;28;20479;-68
2022/01/01 00:13:40;;;;;;;84.73;58.03;;;;;;;;;;5053512;28;20420;-68
2022/01/01 00:16:09;;;;;;;78.57;52.80;;;;;;;;;;5053715;28;20463;-68
2022/01/01 00:18:38;;;;;;;75.67;51.57;;;;;;;;;;5053433;28;20910;-68
2022/01/01 00:21:05;;;;;;;65.97;44.97;;;;;;;;;;5053421;28;20411;-68
2022/01/01 00:23:33;;;;;;;64.30;43.70;;;;;;;;;;5053630;28;20494;-68
2022/01/01 00:25:59;;;;;;;56.73;42.97;;;;;;;;;;5053316;28;20404;-69
2022/01/01 00:28:25;;;;;;;56.53;39.63;;;;;;;;;;5053346;28;20457;-69
2022/01/01 00:30:57;;;;;;;41.13;30.43;;;;;;;;;;5053434;28;20464;-68
2022/01/01 00:33:23;;;;;;;36.80;28.80;;;;;;;;;;5053513;28;20419;-68
2022/01/01 00:35:49;;;;;;;30.67;23.40;;;;;;;;;;5053278;28;20494;-68
2022/01/01 00:38:15;;;;;;;28.27;21.97;;;;;;;;;;5053287;28;20446;-68
2022/01/01 00:40:41;;;;;;;28.60;20.87;;;;;;;;;;5053173;28;20407;-68
2022/01/01 00:43:07;;;;;;;23.50;18.50;;;;;;;;;;5053234;28;20407;-68
2022/01/01 00:45:33;;;;;;;20.90;15.93;;;;;;;;;;5055997;28;20414;-68
2022/01/01 00:47:59;;;;;;;21.30;17.20;;;;;;;;;;5057326;28;20772;-68
2022/01/01 00:50:25;;;;;;;27.90;19.53;;;;;;;;;;5057294;28;20411;-68
2022/01/01 00:52:52;;;;;;;22.83;16.20;;;;;;;;;;5057175;28;20512;-69
2022/01/01 00:55:19;;;;;;;20.27;15.53;;;;;;;;;;5057470;28;20398;-68
2022/01/01 00:57:46;;;;;;;13.30;12.07;;;;;;;;;;5057478;28;20403;-68
2022/01/01 01:00:12;;;;;;;12.63;11.33;;;;;;;;;;5057145;28;20399;-68
2022/01/01 01:02:38;;;;;;;11.50;10.30;;;;;;;;;;5057045;28;20770;-70
2022/01/01 01:05:04;;;;;;;11.97;9.60;;;;;;;;;;5057392;28;20770;-70
2022/01/01 01:07:30;;;;;;;11.57;10.10;;;;;;;;;;5056972;28;20744;-70
2022/01/01 01:09:56;;;;;;;15.03;11.83;;;;;;;;;;5056960;28;20432;-69
2022/01/01 01:12:26;;;;;;;14.70;12.73;;;;;;;;;;5056651;28;20482;-70
2022/01/01 01:14:53;;;;;;;21.27;15.77;;;;;;;;;;5057052;28;20410;-70
2022/01/01 01:17:19;;;;;;;24.80;18.43;;;;;;;;;;5056813;28;20399;-69
2022/01/01 01:19:45;;;;;;;23.83;17.70;;;;;;;;;;5056716;28;20399;-71
2022/01/01 01:22:11;;;;;;;27.03;19.03;;;;;;;;;;5056677;28;20409;-70
2022/01/01 01:24:39;;;;;;;26.20;19.90;;;;;;;;;;5056531;28;20417;-70
2022/01/01 01:27:06;;;;;;;29.53;19.60;;;;;;;;;;5056828;28;20777;-70
2022/01/01 01:29:35;;;;;;;27.80;21.00;;;;;;;;;;5056753;28;20406;-69
2022/01/01 01:32:01;;;;;;;33.70;21.13;;;;;;;;;;5056377;28;20469;-70
2022/01/01 01:34:27;;;;;;;25.87;19.57;;;;;;;;;;5056458;28;20399;-69
2022/01/01 01:36:53;;;;;;;26.00;20.80;;;;;;;;;;5056780;28;20576;-69
2022/01/01 01:39:19;;;;;;;26.53;19.50;;;;;;;;;;5056376;28;20423;-69
2022/01/01 01:41:46;;;;;;;24.93;18.67;;;;;;;;;;5056292;28;20839;-68
2022/01/01 01:44:24;;;;;;;30.30;20.43;;;;;;;;;;5056280;28;20457;-69
2022/01/01 01:46:50;;;;;;;26.67;20.90;;;;;;;;;;5056521;28;20399;-69
2022/01/01 01:49:16;;;;;;;32.47;22.50;;;;;;;;;;5056155;28;20409;-69
2022/01/01 01:51:42;;;;;;;23.00;18.83;;;;;;;;;;5056131;28;21039;-69
2022/01/01 01:54:09;;;;;;;27.10;20.00;;;;;;;;;;5056179;28;20486;-69
2022/01/01 01:56:36;;;;;;;25.17;20.00;;;;;;;;;;5054021;28;20427;-68
2022/01/01 01:59:02;;;;;;;27.70;18.40;;;;;;;;;;5056172;28;20411;-67
2022/01/01 02:01:28;;;;;;;24.83;18.83;;;;;;;;;;5056055;28;20495;-67
2022/01/01 02:03:56;;;;;;;26.97;18.40;;;;;;;;;;5056067;28;20878;-67
2022/01/01 02:06:23;;;;;;;29.10;19.40;;;;;;;;;;5056129;28;20766;-68
2022/01/01 02:08:50;;;;;;;28.07;20.13;;;;;;;;;;5055921;28;20407;-68
2022/01/01 02:11:18;;;;;;;29.20;19.50;;;;;;;;;;5055602;28;20478;-68
2022/01/01 02:14:02;;;;;;;31.93;21.13;;;;;;;;;;5055734;28;20403;-67
2022/01/01 02:17:08;;;;;;;33.50;20.37;;;;;;;;;;5055673;28;20544;-67
2022/01/01 02:19:43;;;;;;;28.67;19.30;;;;;;;;;;5055521;28;20410;-67
2022/01/01 02:22:11;;;;;;;26.30;18.90;;;;;;;;;;5055811;28;20429;-67
2022/01/01 02:24:36;;;;;;;31.37;19.33;;;;;;;;;;5055529;28;20537;-67
2022/01/01 02:27:03;;;;;;;29.90;20.37;;;;;;;;;;5055585;28;20434;-67
2022/01/01 02:29:29;;;;;;;27.77;19.30;;;;;;;;;;5055439;28;20395;-68
2022/01/01 02:31:55;;;;;;;30.10;20.27;;;;;;;;;;5055412;28;20463;-67
2022/01/01 02:34:21;;;;;;;32.30;20.50;;;;;;;;;;5055293;28;20778;-67
2022/01/01 02:36:47;;;;;;;28.70;20.53;;;;;;;;;;5055208;28;20413;-67
2022/01/01 02:39:23;;;;;;;26.40;18.30;;;;;;;;;;5055267;28;20391;-67
2022/01/01 02:41:51;;;;;;;34.37;20.60;;;;;;;;;;5055130;28;20403;-67
2022/01/01 02:44:17;;;;;;;29.53;20.20;;;;;;;;;;5055166;28;20414;-68
2022/01/01 02:46:43;;;;;;;24.07;19.27;;;;;;;;;;5055105;28;20491;-68
2022/01/01 02:49:09;;;;;;;30.83;20.97;;;;;;;;;;5055093;28;20843;-67
2022/01/01 02:51:35;;;;;;;28.47;19.77;;;;;;;;;;5055212;28;20467;-67
2022/01/01 02:54:01;;;;;;;30.60;20.17;;;;;;;;;;5055223;28;20824;-67
2022/01/01 02:56:27;;;;;;;31.33;21.00;;;;;;;;;;5054941;28;20795;-67
2022/01/01 02:58:55;;;;;;;26.27;20.03;;;;;;;;;;5054856;28;20502;-68
2022/01/01 03:01:21;;;;;;;27.73;18.60;;;;;;;;;;5053580;28;20411;-67
2022/01/01 03:03:47;;;;;;;28.50;19.40;;;;;;;;;;5054847;28;20415;-67
2022/01/01 03:06:20;;;;;;;29.80;21.00;;;;;;;;;;5054721;28;20878;-67
2022/01/01 03:08:47;;;;;;;34.20;21.20;;;;;;;;;;5054386;28;20414;-67
2022/01/01 03:11:13;;;;;;;26.83;19.57;;;;;;;;;;5054545;28;20482;-67
2022/01/01 03:13:39;;;;;;;25.87;20.37;;;;;;;;;;5054873;28;20416;-67
2022/01/01 03:16:05;;;;;;;35.00;23.13;;;;;;;;;;5054627;28;20401;-67
2022/01/01 03:18:31;;;;;;;31.30;21.47;;;;;;;;;;5054411;28;20407;-67
2022/01/01 03:20:57;;;;;;;30.13;20.67;;;;;;;;;;5054585;28;20470;-67
2022/01/01 03:23:23;;;;;;;32.37;22.00;;;;;;;;;;5054325;28;20407;-67
2022/01/01 03:25:49;;;;;;;42.80;23.83;;;;;;;;;;5054444;28;20486;-67
2022/01/01 03:28:17;;;;;;;38.50;25.40;;;;;;;;;;5054372;28;20407;-67
2022/01/01 03:30:43;;;;;;;48.80;30.20;;;;;;;;;;5054349;28;20449;-67
2022/01/01 03:33:09;;;;;;;55.70;33.00;;;;;;;;;;5054350;28;20474;-67
2022/01/01 03:35:35;;;;;;;52.83;31.17;;;;;;;;;;5054146;28;20396;-67
2022/01/01 03:38:01;;;;;;;53.37;35.57;;;;;;;;;;5054159;28;20391;-67
2022/01/01 03:40:27;;;;;;;64.73;39.70;;;;;;;;;;5054111;28;20475;-68
2022/01/01 03:42:53;;;;;;;62.00;37.63;;;;;;;;;;5053981;28;20956;-67
2022/01/01 03:45:19;;;;;;;54.20;35.57;;;;;;;;;;5054081;28;20395;-67
2022/01/01 03:47:45;;;;;;;40.63;29.53;;;;;;;;;;5053946;28;20407;-67
2022/01/01 03:50:11;;;;;;;51.50;32.10;;;;;;;;;;5054010;28;20433;-68
2022/01/01 03:52:44;;;;;;;46.63;29.60;;;;;;;;;;5054002;28;20467;-70
2022/01/01 03:55:11;;;;;;;71.60;39.03;;;;;;;;;;5053972;28;20395;-70
2022/01/01 03:57:37;;;;;;;38.70;25.03;;;;;;;;;;5053792;28;20395;-68
2022/01/01 04:00:07;;;;;;;44.90;28.27;;;;;;;;;;5053702;28;20396;-69
2022/01/01 04:02:33;;;;;;;46.63;27.50;;;;;;;;;;5053716;28;20406;-69
2022/01/01 04:04:59;;;;;;;31.40;21.90;;;;;;;;;;5053867;28;20753;-69
2022/01/01 04:07:25;;;;;;;39.33;24.70;;;;;;;;;;5053718;28;20770;-70
2022/01/01 04:09:51;;;;;;;29.63;20.67;;;;;;;;;;5053904;28;20419;-68
2022/01/01 04:12:17;;;;;;;39.97;24.87;;;;;;;;;;5053311;28;20490;-70
2022/01/01 04:14:43;;;;;;;42.23;25.17;;;;;;;;;;5053594;28;20738;-70
2022/01/01 04:17:11;;;;;;;47.53;27.07;;;;;;;;;;5053533;28;20490;-70
2022/01/01 04:19:40;;;;;;;39.70;26.10;;;;;;;;;;5052905;28;20401;-69
2022/01/01 04:22:07;;;;;;;45.70;29.10;;;;;;;;;;5053452;28;20477;-70
2022/01/01 04:24:33;;;;;;;37.70;27.10;;;;;;;;;;5053683;28;20465;-69
2022/01/01 04:26:59;;;;;;;38.20;27.53;;;;;;;;;;5053481;28;20411;-70
2022/01/01 04:29:25;;;;;;;35.87;25.63;;;;;;;;;;5053598;28;20444;-69
2022/01/01 04:31:51;;;;;;;40.63;26.13;;;;;;;;;;5053320;28;20969;-70
2022/01/01 04:34:17;;;;;;;38.10;27.50;;;;;;;;;;5053239;28;20377;-69
2022/01/01 04:36:49;;;;;;;42.10;26.03;;;;;;;;;;5053292;28;20407;-68
2022/01/01 04:39:16;;;;;;;34.80;24.60;;;;;;;;;;5053533;28;20394;-70
2022/01/01 04:41:42;;;;;;;37.13;23.23;;;;;;;;;;5053262;28;20759;-70
2022/01/01 04:44:08;;;;;;;33.87;23.60;;;;;;;;;;5053224;28;20403;-69
2022/01/01 04:46:34;;;;;;;35.20;24.63;;;;;;;;;;5053524;28;20473;-69
2022/01/01 04:49:01;;;;;;;39.67;24.50;;;;;;;;;;5053229;28;20446;-68
2022/01/01 04:51:27;;;;;;;37.50;23.00;;;;;;;;;;5053288;28;20454;-69
2022/01/01 04:53:59;;;;;;;35.07;22.17;;;;;;;;;;5053099;28;20415;-69
2022/01/01 04:56:25;;;;;;;40.57;22.30;;;;;;;;;;5053423;28;20403;-70
2022/01/01 04:58:51;;;;;;;29.97;21.13;;;;;;;;;;5053379;28;20476;-68
2022/01/01 05:01:19;;;;;;;30.90;20.27;;;;;;;;;;5053214;28;20398;-69
2022/01/01 05:03:44;;;;;;;27.43;19.27;;;;;;;;;;5053411;28;20437;-69
2022/01/01 05:06:11;;;;;;;26.20;18.47;;;;;;;;;;5053111;28;20403;-69
2022/01/01 05:08:37;;;;;;;26.40;19.90;;;;;;;;;;5053360;28;20415;-67
2022/01/01 05:11:03;;;;;;;26.20;17.70;;;;;;;;;;5052751;28;20469;-68
2022/01/01 05:13:29;;;;;;;26.00;17.87;;;;;;;;;;5053023;28;20582;-67
2022/01/01 05:15:56;;;;;;;27.90;19.03;;;;;;;;;;5053281;28;20457;-68
2022/01/01 05:18:22;;;;;;;25.93;17.83;;;;;;;;;;5053189;28;20878;-68
2022/01/01 05:20:48;;;;;;;23.47;18.17;;;;;;;;;;5052966;28;20748;-67
2022/01/01 05:23:14;;;;;;;29.90;21.13;;;;;;;;;;5052856;28;20399;-67
2022/01/01 05:25:40;;;;;;;34.60;21.90;;;;;;;;;;5052643;28;20528;-67
2022/01/01 05:28:06;;;;;;;35.77;23.57;;;;;;;;;;5052842;28;20399;-67
2022/01/01 05:30:33;;;;;;;32.80;21.10;;;;;;;;;;5053580;28;20473;-67
2022/01/01 05:32:59;;;;;;;30.03;22.67;;;;;;;;;;5056406;28;20466;-67
2022/01/01 05:35:25;;;;;;;32.53;22.87;;;;;;;;;;5056517;28;20416;-68
2022/01/01 05:37:51;;;;;;;33.93;23.73;;;;;;;;;;5056425;28;20398;-67
2022/01/01 05:40:17;;;;;;;34.17;23.90;;;;;;;;;;5056355;28;20503;-68
2022/01/01 05:42:43;;;;;;;42.50;24.80;;;;;;;;;;5056269;28;20431;-67
2022/01/01 05:45:10;;;;;;;30.47;23.30;;;;;;;;;;5056293;28;20403;-67
2022/01/01 05:47:36;;;;;;;36.20;25.50;;;;;;;;;;5056215;28;20515;-67
2022/01/01 05:50:02;;;;;;;34.73;23.77;;;;;;;;;;5056181;28;20429;-68
2022/01/01 05:52:28;;;;;;;37.53;24.93;;;;;;;;;;5056061;28;20510;-67
2022/01/01 05:54:54;;;;;;;34.67;24.33;;;;;;;;;;5056094;28;20370;-67
2022/01/01 05:57:20;;;;;;;38.97;24.10;;;;;;;;;;5056028;28;20403;-67
2022/01/01 05:59:46;;;;;;;36.33;23.97;;;;;;;;;;5056021;28;20391;-67
2022/01/01 06:02:12;;;;;;;31.10;21.77;;;;;;;;;;5055922;28;20403;-68
2022/01/01 06:04:38;;;;;;;27.30;20.20;;;;;;;;;;5055887;28;20680;-68
2022/01/01 06:07:04;;;;;;;25.90;19.07;;;;;;;;;;5054587;28;20427;-68
2022/01/01 06:09:30;;;;;;;27.93;19.00;;;;;;;;;;5056116;28;20412;-68
2022/01/01 06:11:56;;;;;;;27.37;19.43;;;;;;;;;;5055563;28;20490;-67
2022/01/01 06:14:22;;;;;;;30.30;21.70;;;;;;;;;;5055676;28;20795;-67
2022/01/01 06:16:51;;;;;;;23.57;18.97;;;;;;;;;;5055756;28;20407;-67
2022/01/01 06:19:17;;;;;;;24.63;17.07;;;;;;;;;;5055666;28;20474;-68
2022/01/01 06:21:43;;;;;;;22.70;17.50;;;;;;;;;;5055664;28;20819;-68
2022/01/01 06:24:09;;;;;;;27.73;19.23;;;;;;;;;;5054309;28;20408;-67
2022/01/01 06:26:35;;;;;;;22.20;17.20;;;;;;;;;;5055508;28;20418;-67
2022/01/01 06:29:01;;;;;;;22.70;17.70;;;;;;;;;;5055513;28;20399;-68
2022/01/01 06:31:28;;;;;;;17.47;14.50;;;;;;;;;;5055626;28;20459;-68
2022/01/01 06:33:54;;;;;;;24.07;17.43;;;;;;;;;;5055316;28;20386;-68
2022/01/01 06:36:20;;;;;;;22.90;17.17;;;;;;;;;;5055458;28;20791;-68
2022/01/01 06:38:46;;;;;;;16.70;13.90;;;;;;;;;;5055304;28;20418;-68
2022/01/01 06:41:12;;;;;;;18.33;14.33;;;;;;;;;;5055301;28;20449;-68
2022/01/01 06:43:39;;;;;;;16.60;14.20;;;;;;;;;;5054565;28;20403;-68
2022/01/01 06:46:08;;;;;;;19.67;16.13;;;;;;;;;;5055252;28;20733;-67
2022/01/01 06:48:34;;;;;;;16.40;13.93;;;;;;;;;;5055121;28;20456;-68
2022/01/01 06:51:01;;;;;;;15.40;13.03;;;;;;;;;;5054980;28;20395;-68
2022/01/01 06:53:27;;;;;;;18.30;13.50;;;;;;;;;;5055023;28;20407;-67
2022/01/01 06:55:53;;;;;;;16.43;13.20;;;;;;;;;;5054977;28;20576;-68
2022/01/01 06:58:19;;;;;;;20.10;13.90;;;;;;;;;;5054940;28;20395;-68
2022/01/01 07:00:45;;;;;;;14.37;12.87;;;;;;;;;;5054961;28;20386;-68
2022/01/01 07:03:11;;;;;;;16.97;13.20;;;;;;;;;;5054841;28;20431;-68
2022/01/01 07:05:37;;;;;;;18.07;13.87;;;;;;;;;;5055045;28;20390;-68
2022/01/01 07:08:03;;;;;;;16.03;13.23;;;;;;;;;;5054967;28;20511;-68
2022/01/01 07:10:29;;;;;;;19.50;15.00;;;;;;;;;;5054544;28;20822;-68
2022/01/01 07:12:55;;;;;;;24.10;14.80;;;;;;;;;;5054847;28;20470;-67
2022/01/01 07:15:21;;;;;;;16.03;14.17;;;;;;;;;;5054629;28;20896;-68
2022/01/01 07:17:47;;;;;;;16.53;14.60;;;;;;;;;;5054489;28;20405;-68
2022/01/01 07:20:13;;;;;;;17.33;14.17;;;;;;;;;;5054437;28;20478;-68
2022/01/01 07:22:43;;;;;;;17.90;15.07;;;;;;;;;;5054610;28;20418;-68
2022/01/01 07:25:09;;;;;;;17.77;14.63;;;;;;;;;;5054411;28;20409;-67
2022/01/01 07:27:35;;;;;;;17.93;14.10;;;;;;;;;;5054356;28;20395;-68
2022/01/01 07:30:02;;;;;;;16.33;14.03;;;;;;;;;;5054592;28;20410;-68
2022/01/01 07:32:28;;;;;;;16.10;13.13;;;;;;;;;;5054176;28;20471;-68
2022/01/01 07:34:55;;;;;;;16.10;13.80;;;;;;;;;;5054331;28;20402;-69
2022/01/01 07:37:21;;;;;;;16.20;13.40;;;;;;;;;;5054193;28;20410;-67
2022/01/01 07:39:47;;;;;;;18.57;13.90;;;;;;;;;;5054154;28;20396;-66
2022/01/01 07:42:13;;;;;;;15.70;13.23;;;;;;;;;;5054073;28;20374;-68
2022/01/01 07:44:39;;;;;;;17.07;13.00;;;;;;;;;;5054001;28;20395;-67
2022/01/01 07:47:06;;;;;;;20.90;15.50;;;;;;;;;;5054038;28;20404;-67
2022/01/01 07:49:31;;;;;;;28.77;17.87;;;;;;;;;;5053926;28;20410;-67
2022/01/01 07:51:57;;;;;;;26.87;16.70;;;;;;;;;;5053851;28;20451;-67
2022/01/01 07:54:23;;;;;;;30.77;18.00;;;;;;;;;;5053055;28;20924;-68
2022/01/01 07:56:49;;;;;;;37.50;21.67;;;;;;;;;;5053786;28;20430;-68
2022/01/01 07:59:16;;;;;;;34.10;19.83;;;;;;;;;;5053848;28;20973;-69
2022/01/01 08:01:43;;;;;;;29.30;17.03;;;;;;;;;;5053790;28;20398;-67
2022/01/01 08:04:09;;;;;;;35.27;17.73;;;;;;;;;;5053925;28;20434;-67
2022/01/01 08:06:35;;;;;;;31.67;17.90;;;;;;;;;;5053781;28;20399;-68
2022/01/01 08:09:01;;;;;;;21.33;15.73;;;;;;;;;;5053685;28;20391;-66
2022/01/01 08:11:27;;;;;;;17.87;14.07;;;;;;;;;;5053435;28;20539;-68
2022/01/01 08:13:53;;;;;;;17.43;14.10;;;;;;;;;;5053612;28;20560;-67
2022/01/01 08:16:19;;;;;;;47.27;30.93;;;;;;;;;;5053458;28;20405;-67
2022/01/01 08:18:45;;;;;;;33.63;24.73;;;;;;;;;;5053548;28;20494;-67
2022/01/01 08:21:11;;;;;;;19.27;15.27;;;;;;;;;;5053476;28;20490;-68
2022/01/01 08:23:37;;;;;;;21.00;15.00;;;;;;;;;;5053476;28;20411;-68
2022/01/01 08:26:03;;;;;;;20.70;15.90;;;;;;;;;;5053457;28;20941;-67
2022/01/01 08:28:30;;;;;;;20.00;16.00;;;;;;;;;;5053496;28;20956;-68
2022/01/01 08:30:56;;;;;;;25.60;17.60;;;;;;;;;;5053526;28;20808;-68
2022/01/01 08:33:22;;;;;;;27.40;20.30;;;;;;;;;;5053346;28;20462;-67
2022/01/01 08:35:48;;;;;;;25.63;17.83;;;;;;;;;;5053655;28;20761;-67
2022/01/01 08:38:14;;;;;;;19.70;15.93;;;;;;;;;;5053291;28;20406;-67
2022/01/01 08:40:41;;;;;;;24.90;18.10;;;;;;;;;;5053641;28;20449;-66
2022/01/01 08:43:07;;;;;;;25.80;18.20;;;;;;;;;;5053185;28;20406;-67
2022/01/01 08:45:34;;;;;;;19.70;16.23;;;;;;;;;;5053322;28;20399;-66
2022/01/01 08:48:00;;;;;;;19.93;16.30;;;;;;;;;;5053834;28;20388;-65
2022/01/01 08:50:26;;;;;;;23.30;14.67;;;;;;;;;;5053565;28;20532;-66
2022/01/01 08:52:52;;;;;;;17.73;15.83;;;;;;;;;;5053246;28;20474;-66
2022/01/01 08:55:18;;;;;;;40.87;33.03;;;;;;;;;;5053300;28;20450;-65
2022/01/01 08:57:44;;;;;;;23.50;14.80;;;;;;;;;;5053383;28;20408;-66
2022/01/01 09:00:11;;;;;;;18.90;13.90;;;;;;;;;;5053427;28;20924;-68
2022/01/01 09:02:37;;;;;;;19.43;12.67;;;;;;;;;;5053384;28;20882;-66
2022/01/01 09:05:03;;;;;;;16.17;13.70;;;;;;;;;;5053341;28;20403;-66
2022/01/01 09:07:29;;;;;;;16.07;14.47;;;;;;;;;;5057014;28;20411;-66
2022/01/01 09:09:56;;;;;;;16.20;13.60;;;;;;;;;;5056830;28;20403;-66
2022/01/01 09:12:22;;;;;;;15.57;13.93;;;;;;;;;;5056706;28;20542;-66
2022/01/01 09:14:48;;;;;;;34.70;22.63;;;;;;;;;;5056855;28;20457;-66
2022/01/01 09:17:14;;;;;;;23.80;18.53;;;;;;;;;;5056887;28;20407;-66
2022/01/01 09:19:40;;;;;;;19.03;17.00;;;;;;;;;;5056865;28;20460;-66
2022/01/01 09:22:06;;;;;;;18.23;16.33;;;;;;;;;;5056835;28;20491;-66
2022/01/01 09:24:33;;;;;;;17.10;15.30;;;;;;;;;;5056676;28;20412;-66
2022/01/01 09:26:59;;;;;;;17.63;15.03;;;;;;;;;;5056583;28;20415;-66
2022/01/01 09:29:25;;;;;;;17.23;14.63;;;;;;;;;;5056606;28;20405;-67
2022/01/01 09:31:51;;;;;;;15.87;14.43;;;;;;;;;;5056388;28;20472;-67
2022/01/01 09:34:17;;;;;;;18.00;13.00;;;;;;;;;;5056623;28;20444;-67
2022/01/01 09:36:44;;;;;;;17.33;14.00;;;;;;;;;;5056525;28;20897;-67
2022/01/01 09:39:10;;;;;;;14.37;12.63;;;;;;;;;;5056497;28;20452;-67
2022/01/01 09:41:41;;;;;;;12.43;11.20;;;;;;;;;;5056359;28;20843;-67
2022/01/01 09:44:07;;;;;;;14.27;12.60;;;;;;;;;;5056406;28;20400;-67
2022/01/01 09:46:37;;;;;;;12.83;11.70;;;;;;;;;;5056279;28;20405;-71
2022/01/01 09:49:03;;;;;;;17.37;15.77;;;;;;;;;;5056295;28;20883;-68
2022/01/01 09:51:29;;;;;;;11.90;10.80;;;;;;;;;;5056238;28;20450;-68
2022/01/01 09:53:55;;;;;;;12.03;11.00;;;;;;;;;;5056228;28;20449;-68
2022/01/01 09:56:21;;;;;;;11.67;10.77;;;;;;;;;;5056152;28;20880;-68
2022/01/01 09:58:47;;;;;;;12.43;11.20;;;;;;;;;;5056157;28;20399;-66
2022/01/01 10:01:14;;;;;;;13.10;11.90;;;;;;;;;;5056164;28;20404;-66
2022/01/01 10:03:44;;;;;;;13.30;12.00;;;;;;;;;;5056022;28;20508;-66
2022/01/01 10:06:14;;;;;;;12.30;11.30;;;;;;;;;;5056283;28;20431;-67
2022/01/01 10:08:41;;;;;;;10.67;9.77;;;;;;;;;;5055904;28;20490;-67
2022/01/01 10:11:08;;;;;;;11.87;9.37;;;;;;;;;;5055750;28;20944;-67
2022/01/01 10:13:38;;;;;;;11.50;10.70;;;;;;;;;;5055840;28;20406;-68
2022/01/01 10:16:06;;;;;;;15.80;14.27;;;;;;;;;;5055791;28;20405;-67
2022/01/01 10:18:36;;;;;;;12.87;11.77;;;;;;;;;;5054937;28;20406;-66
2022/01/01 10:21:08;;;;;;;12.40;11.20;;;;;;;;;;5055926;28;20409;-67
2022/01/01 10:23:35;;;;;;;11.07;10.07;;;;;;;;;;5055644;28;20495;-67
2022/01/01 10:28:55;;;;;;;10.20;9.43;;;;;;;;;;5055663;28;20422;-68
2022/01/01 10:31:21;;;;;;;9.20;8.50;;;;;;;;;;5055651;28;20423;-67
2022/01/01 10:33:47;;;;;;;8.87;8.17;;;;;;;;;;5054989;28;20902;-66
2022/01/01 10:36:19;;;;;;;9.03;8.23;;;;;;;;;;5055308;28;20403;-67
2022/01/01 10:38:45;;;;;;;8.07;7.57;;;;;;;;;;5055365;28;20415;-66
2022/01/01 10:41:13;;;;;;;10.00;9.13;;;;;;;;;;5055279;28;20414;-66
2022/01/01 10:43:43;;;;;;;8.60;8.00;;;;;;;;;;5055268;28;20754;-65
2022/01/01 10:46:17;;;;;;;14.87;13.47;;;;;;;;;;5055174;28;20392;-67
2022/01/01 10:48:58;;;;;;;11.87;10.90;;;;;;;;;;5055109;28;20400;-67
2022/01/01 10:51:25;;;;;;;9.33;8.73;;;;;;;;;;5055324;28;20387;-67
2022/01/01 10:54:00;;;;;;;8.90;8.10;;;;;;;;;;5055231;28;20418;-66
2022/01/01 10:56:26;;;;;;;9.00;8.50;;;;;;;;;;5054975;28;20448;-66
2022/01/01 10:59:00;;;;;;;8.23;7.73;;;;;;;;;;5054950;28;20498;-66
2022/01/01 11:01:26;;;;;;;5.70;5.50;;;;;;;;;;5055151;28;20778;-66
2022/01/01 11:03:54;;;;;;;4.53;4.33;;;;;;;;;;5054870;28;20414;-67
2022/01/01 11:06:20;;;;;;;5.00;4.80;;;;;;;;;;5054818;28;20431;-66
2022/01/01 11:08:46;;;;;;;4.30;4.20;;;;;;;;;;5054763;28;20468;-67
2022/01/01 11:11:13;;;;;;;5.00;4.80;;;;;;;;;;5054598;28;20546;-68
2022/01/01 11:13:40;;;;;;;5.03;4.93;;;;;;;;;;5054769;28;20878;-68
2022/01/01 11:16:07;;;;;;;5.30;5.10;;;;;;;;;;5054775;28;20824;-68
2022/01/01 11:18:39;;;;;;;18.27;16.57;;;;;;;;;;5054629;28;20411;-69
2022/01/01 11:21:05;;;;;;;7.70;7.20;;;;;;;;;;5054586;28;20491;-67
2022/01/01 11:23:32;;;;;;;6.07;5.73;;;;;;;;;;5054425;28;20428;-67
2022/01/01 11:25:59;;;;;;;6.97;6.50;;;;;;;;;;5054469;28;20499;-67
2022/01/01 11:28:25;;;;;;;10.13;5.53;;;;;;;;;;5054393;28;20804;-68
2022/01/01 11:30:57;;;;;;;7.73;7.23;;;;;;;;;;5054296;28;20408;-67
2022/01/01 11:33:33;;;;;;;6.80;6.20;;;;;;;;;;5054220;28;20933;-66
2022/01/01 11:36:00;;;;;;;5.50;5.10;;;;;;;;;;5054322;28;20489;-67
2022/01/01 11:38:27;;;;;;;5.37;5.00;;;;;;;;;;5054220;28;20416;-67
2022/01/01 11:41:04;;;;;;;4.10;4.00;;;;;;;;;;5054355;28;20539;-67
2022/01/01 11:43:40;;;;;;;3.67;3.47;;;;;;;;;;5054288;28;20415;-67
2022/01/01 11:46:33;;;;;;;2.40;2.40;;;;;;;;;;5054236;28;20907;-66
2022/01/01 11:48:59;;;;;;;4.00;3.80;;;;;;;;;;5054044;28;20451;-67
2022/01/01 11:51:29;;;;;;;3.87;3.77;;;;;;;;;;5053953;28;20412;-66
2022/01/01 11:54:07;;;;;;;4.40;4.23;;;;;;;;;;5053931;28;20417;-67
2022/01/01 11:56:51;;;;;;;5.37;4.00;;;;;;;;;;5053975;28;20396;-67
2022/01/01 11:59:22;;;;;;;3.40;3.30;;;;;;;;;;5053893;28;20407;-67
2022/01/01 12:01:49;;;;;;;3.60;3.40;;;;;;;;;;5053824;28;20398;-68
2022/01/01 12:04:34;;;;;;;4.63;4.30;;;;;;;;;;5053692;28;20885;-68
2022/01/01 12:07:00;;;;;;;3.30;3.20;;;;;;;;;;5053703;28;20398;-70
2022/01/01 12:09:26;;;;;;;3.40;3.30;;;;;;;;;;5053751;28;20398;-68
2022/01/01 12:11:54;;;;;;;3.67;3.57;;;;;;;;;;5053436;28;20951;-67
2022/01/01 12:14:23;;;;;;;3.60;3.50;;;;;;;;;;5053821;28;20458;-69
2022/01/01 12:16:50;;;;;;;3.70;3.60;;;;;;;;;;5053870;28;20457;-67
2022/01/01 12:19:19;;;;;;;3.97;3.57;;;;;;;;;;5053849;28;20464;-68
2022/01/01 12:21:47;;;;;;;7.30;6.70;;;;;;;;;;5053564;28;20407;-68
2022/01/01 12:24:20;;;;;;;7.53;7.03;;;;;;;;;;5053541;28;20399;-67
2022/01/01 12:26:51;;;;;;;4.17;3.90;;;;;;;;;;5053462;28;20450;-68
2022/01/01 12:29:22;;;;;;;4.47;4.27;;;;;;;;;;5053508;28;20419;-67
2022/01/01 12:31:57;;;;;;;3.90;3.80;;;;;;;;;;5053249;28;20477;-66
2022/01/01 12:34:24;;;;;;;4.03;3.67;;;;;;;;;;5053347;28;20407;-66
2022/01/01 12:36:53;;;;;;;3.93;3.73;;;;;;;;;;5053562;28;20420;-66
2022/01/01 12:39:19;;;;;;;4.00;3.80;;;;;;;;;;5053495;28;20421;-66
2022/01/01 12:41:46;;;;;;;4.13;3.87;;;;;;;;;;5059004;28;20405;-67
2022/01/01 12:44:20;;;;;;;3.50;3.30;;;;;;;;;;5060053;28;20405;-67
2022/01/01 12:46:51;;;;;;;3.47;3.37;;;;;;;;;;5060204;28;20418;-67
2022/01/01 12:49:17;;;;;;;3.30;3.20;;;;;;;;;;5060028;28;20756;-67
2022/01/01 12:51:44;;;;;;;3.27;3.17;;;;;;;;;;5059794;28;20454;-67
2022/01/01 12:54:11;;;;;;;3.67;3.47;;;;;;;;;;5060090;28;20815;-66
2022/01/01 12:56:38;;;;;;;3.33;3.23;;;;;;;;;;5059861;28;20426;-66
2022/01/01 12:59:07;;;;;;;11.33;10.43;;;;;;;;;;5059845;28;20464;-66
2022/01/01 13:01:34;;;;;;;4.40;4.10;;;;;;;;;;5060071;28;20797;-67
2022/01/01 13:04:01;;;;;;;11.50;10.43;;;;;;;;;;5059759;28;20830;-67
2022/01/01 13:06:27;;;;;;;4.00;3.80;;;;;;;;;;5059701;28;20906;-67
2022/01/01 13:08:54;;;;;;;3.30;3.20;;;;;;;;;;5060011;28;20409;-67
2022/01/01 13:11:20;;;;;;;3.17;3.17;;;;;;;;;;5058656;28;20986;-67
2022/01/01 13:13:46;;;;;;;20.87;18.60;;;;;;;;;;5059453;28;20801;-66
2022/01/01 13:16:12;;;;;;;4.23;4.03;;;;;;;;;;5059597;28;20409;-67
2022/01/01 13:18:38;;;;;;;5.67;5.27;;;;;;;;;;5059499;28;20422;-66
2022/01/01 13:21:04;;;;;;;2.70;2.60;;;;;;;;;;5059679;28;20402;-67
2022/01/01 13:23:31;;;;;;;2.73;2.63;;;;;;;;;;5059629;28;20396;-66
2022/01/01 13:25:58;;;;;;;2.90;2.80;;;;;;;;;;5059538;28;20449;-66
2022/01/01 13:28:32;;;;;;;2.60;2.43;;;;;;;;;;5059520;28;20395;-66
2022/01/01 13:30:59;;;;;;;2.80;2.80;;;;;;;;;;5059548;28;20387;-67
2022/01/01 13:33:26;;;;;;;2.90;2.70;;;;;;;;;;5059253;28;20459;-67
2022/01/01 13:35:54;;;;;;;4.27;3.17;;;;;;;;;;5059412;28;20825;-67
2022/01/01 13:38:20;;;;;;;2.47;2.37;;;;;;;;;;5059552;28;20798;-66
2022/01/01 13:40:48;;;;;;;2.60;2.50;;;;;;;;;;5059427;28;20410;-66
2022/01/01 13:43:14;;;;;;;2.93;2.73;;;;;;;;;;5059660;28;20433;-66
2022/01/01 13:45:40;;;;;;;3.50;3.30;;;;;;;;;;5059403;28;20419;-66
2022/01/01 13:48:15;;;;;;;3.60;3.33;;;;;;;;;;5059371;28;20406;-66
2022/01/01 13:50:47;;;;;;;4.60;4.30;;;;;;;;;;5059260;28;20396;-68
2022/01/01 13:53:13;;;;;;;4.70;4.50;;;;;;;;;;5056329;28;20468;-67
2022/01/01 13:55:53;;;;;;;4.83;4.43;;;;;;;;;;5056038;28;20411;-67
2022/01/01 13:58:20;;;;;;;4.87;4.47;;;;;;;;;;5055995;28;20412;-67
2022/01/01 14:00:55;;;;;;;5.47;4.97;;;;;;;;;;5056125;28;20491;-67
2022/01/01 14:03:23;;;;;;;5.60;5.20;;;;;;;;;;5055970;28;20395;-67
2022/01/01 14:05:49;;;;;;;5.50;5.20;;;;;;;;;;5054955;28;20778;-67
2022/01/01 14:08:19;;;;;;;6.63;6.13;;;;;;;;;;5055874;28;20402;-66
2022/01/01 14:11:01;;;;;;;8.70;8.10;;;;;;;;;;5055696;28;20400;-65
2022/01/01 14:13:31;;;;;;;8.50;7.90;;;;;;;;;;5055686;28;20831;-66
2022/01/01 14:15:58;;;;;;;13.03;10.70;;;;;;;;;;5055680;28;20417;-66
2022/01/01 14:18:30;;;;;;;16.03;12.80;;;;;;;;;;5055576;28;20411;-66
2022/01/01 14:20:57;;;;;;;16.77;14.70;;;;;;;;;;5055670;28;20918;-66
2022/01/01 14:23:25;;;;;;;17.50;15.30;;;;;;;;;;5055464;28;20487;-66
2022/01/01 14:25:56;;;;;;;20.20;15.87;;;;;;;;;;5055524;28;20407;-66
2022/01/01 14:28:23;;;;;;;21.57;17.40;;;;;;;;;;5055482;28;20409;-65